Terminal Aerodrome Forecast
Issued by NWS Detroit/Pontiac, MI

Home | Current Version | Previous Version | Text Only | Print | Product List | Glossary On
Versions: 1 2 3 4 5 6 7 8 9 10 11 12
000
FTUS43 KDTX 021121
TAFFNT
TAF
KFNT 021121Z 0212/0312 24008KT P6SM OVC150
     FM021500 22011G18KT P6SM SCT060
     FM021800 24016G28KT P6SM SCT070
      TEMPO 0218/0221 -TSRA BKN050CB
     FM030100 26014G22KT 2SM TSRA BKN040CB
     FM030400 27012KT P6SM BKN030=

USA.gov is the U.S. government's official web portal to all federal, state and local government web resources and services.